sensor_id;sensor_type;location;lat;lon;timestamp;pressure;altitude;pressure_sealevel;temperature;humidity
24440;BME280;12618;54.386;18.394;2023-05-29T00:01:09;100053.64;;;12.18;71.03
24440;BME280;12618;54.386;18.394;2023-05-29T00:03:41;100055.46;;;12.13;70.31
24440;BME280;12618;54.386;18.394;2023-05-29T00:06:14;100051.52;;;12.14;69.31
24440;BME280;12618;54.386;18.394;2023-05-29T00:08:46;100051.52;;;12.21;69.70
24440;BME280;12618;54.386;18.394;2023-05-29T00:11:18;100053.98;;;12.25;69.14
24440;BME280;12618;54.386;18.394;2023-05-29T00:13:49;100051.74;;;12.20;69.71
24440;BME280;12618;54.386;18.394;2023-05-29T00:16:21;100056.64;;;12.14;69.42
24440;BME280;12618;54.386;18.394;2023-05-29T00:18:55;100055.78;;;12.10;70.14
24440;BME280;12618;54.386;18.394;2023-05-29T00:21:26;100054.82;;;12.04;70.03
24440;BME280;12618;54.386;18.394;2023-05-29T00:23:59;100054.30;;;12.01;70.45
24440;BME280;12618;54.386;18.394;2023-05-29T00:26:31;100057.05;;;11.98;70.93
24440;BME280;12618;54.386;18.394;2023-05-29T00:29:02;100054.75;;;11.95;70.46
24440;BME280;12618;54.386;18.394;2023-05-29T00:31:34;100063.97;;;11.94;70.74
24440;BME280;12618;54.386;18.394;2023-05-29T00:34:07;100063.11;;;11.90;70.91
24440;BME280;12618;54.386;18.394;2023-05-29T00:36:38;100065.14;;;11.88;71.42
24440;BME280;12618;54.386;18.394;2023-05-29T00:39:11;100065.13;;;11.88;69.83
24440;BME280;12618;54.386;18.394;2023-05-29T00:41:43;100064.98;;;11.91;70.34
24440;BME280;12618;54.386;18.394;2023-05-29T00:44:15;100063.52;;;11.95;69.85
24440;BME280;12618;54.386;18.394;2023-05-29T00:46:52;100061.77;;;11.96;70.14
24440;BME280;12618;54.386;18.394;2023-05-29T00:49:26;100062.12;;;11.95;69.53
24440;BME280;12618;54.386;18.394;2023-05-29T00:51:58;100064.46;;;11.94;69.71
24440;BME280;12618;54.386;18.394;2023-05-29T00:54:33;100065.98;;;11.89;70.08
24440;BME280;12618;54.386;18.394;2023-05-29T00:57:05;100062.92;;;11.79;71.30
24440;BME280;12618;54.386;18.394;2023-05-29T00:59:37;100070.20;;;11.74;70.54
24440;BME280;12618;54.386;18.394;2023-05-29T01:02:09;100066.31;;;11.70;71.17
24440;BME280;12618;54.386;18.394;2023-05-29T01:04:42;100064.16;;;11.67;70.83
24440;BME280;12618;54.386;18.394;2023-05-29T01:07:15;100067.27;;;11.72;71.58
24440;BME280;12618;54.386;18.394;2023-05-29T01:09:46;100063.23;;;11.72;70.73
24440;BME280;12618;54.386;18.394;2023-05-29T01:12:45;100059.41;;;11.74;70.81
24440;BME280;12618;54.386;18.394;2023-05-29T01:21:27;100062.17;;;11.57;71.17
24440;BME280;12618;54.386;18.394;2023-05-29T01:27:02;100062.52;;;11.49;71.90
24440;BME280;12618;54.386;18.394;2023-05-29T01:29:38;100064.36;;;11.48;71.78
24440;BME280;12618;54.386;18.394;2023-05-29T01:32:11;100063.68;;;11.47;72.60
24440;BME280;12618;54.386;18.394;2023-05-29T01:34:42;100065.88;;;11.45;72.29
24440;BME280;12618;54.386;18.394;2023-05-29T01:37:14;100068.92;;;11.44;72.36
24440;BME280;12618;54.386;18.394;2023-05-29T01:39:46;100069.78;;;11.41;72.54
24440;BME280;12618;54.386;18.394;2023-05-29T01:42:17;100070.95;;;11.42;73.06
24440;BME280;12618;54.386;18.394;2023-05-29T01:44:49;100076.50;;;11.40;73.30
24440;BME280;12618;54.386;18.394;2023-05-29T01:47:21;100078.44;;;11.33;73.74
24440;BME280;12618;54.386;18.394;2023-05-29T01:49:54;100075.52;;;11.23;74.62
24440;BME280;12618;54.386;18.394;2023-05-29T01:52:26;100077.17;;;11.17;73.25
24440;BME280;12618;54.386;18.394;2023-05-29T01:54:58;100080.27;;;11.12;74.22
24440;BME280;12618;54.386;18.394;2023-05-29T01:57:29;100083.90;;;11.09;75.00
24440;BME280;12618;54.386;18.394;2023-05-29T02:00:03;100083.95;;;11.04;75.08
24440;BME280;12618;54.386;18.394;2023-05-29T02:02:41;100083.27;;;11.00;75.95
24440;BME280;12618;54.386;18.394;2023-05-29T02:05:13;100082.60;;;10.94;76.64
24440;BME280;12618;54.386;18.394;2023-05-29T02:07:44;100080.70;;;10.90;76.33
24440;BME280;12618;54.386;18.394;2023-05-29T02:10:17;100075.09;;;10.85;77.56
24440;BME280;12618;54.386;18.394;2023-05-29T02:12:48;100081.39;;;10.82;77.12
24440;BME280;12618;54.386;18.394;2023-05-29T02:15:20;100081.47;;;10.84;77.21
24440;BME280;12618;54.386;18.394;2023-05-29T02:17:52;100080.54;;;10.81;77.77
24440;BME280;12618;54.386;18.394;2023-05-29T02:20:24;100076.49;;;10.77;78.14
24440;BME280;12618;54.386;18.394;2023-05-29T02:22:56;100076.89;;;10.72;79.14
24440;BME280;12618;54.386;18.394;2023-05-29T02:25:27;100082.03;;;10.67;79.44
24440;BME280;12618;54.386;18.394;2023-05-29T02:27:59;100082.30;;;10.65;79.78
24440;BME280;12618;54.386;18.394;2023-05-29T02:30:31;100077.38;;;10.65;80.23
24440;BME280;12618;54.386;18.394;2023-05-29T02:33:03;100084.04;;;10.61;81.62
24440;BME280;12618;54.386;18.394;2023-05-29T02:35:34;100079.96;;;10.58;80.91
24440;BME280;12618;54.386;18.394;2023-05-29T02:38:06;100077.77;;;10.55;82.66
24440;BME280;12618;54.386;18.394;2023-05-29T02:40:38;100077.89;;;10.48;83.15
24440;BME280;12618;54.386;18.394;2023-05-29T02:43:12;100075.17;;;10.46;83.39
24440;BME280;12618;54.386;18.394;2023-05-29T02:45:44;100074.18;;;10.44;86.24
24440;BME280;12618;54.386;18.394;2023-05-29T02:48:16;100070.36;;;10.43;87.51
24440;BME280;12618;54.386;18.394;2023-05-29T02:50:48;100071.42;;;10.43;87.73
24440;BME280;12618;54.386;18.394;2023-05-29T02:53:19;100068.98;;;10.43;87.50
24440;BME280;12618;54.386;18.394;2023-05-29T02:55:51;100068.11;;;10.47;87.54
24440;BME280;12618;54.386;18.394;2023-05-29T02:58:23;100062.48;;;10.51;87.24
24440;BME280;12618;54.386;18.394;2023-05-29T03:00:55;100066.55;;;10.54;88.78
24440;BME280;12618;54.386;18.394;2023-05-29T03:03:27;100066.41;;;10.58;87.78
24440;BME280;12618;54.386;18.394;2023-05-29T03:05:59;100062.96;;;10.60;88.43
24440;BME280;12618;54.386;18.394;2023-05-29T03:08:31;100064.84;;;10.66;88.19
24440;BME280;12618;54.386;18.394;2023-05-29T03:11:07;100064.39;;;10.68;87.99
24440;BME280;12618;54.386;18.394;2023-05-29T03:13:42;100064.58;;;10.72;89.02
24440;BME280;12618;54.386;18.394;2023-05-29T03:16:14;100058.91;;;10.72;89.10
24440;BME280;12618;54.386;18.394;2023-05-29T03:18:45;100056.87;;;10.71;89.67
24440;BME280;12618;54.386;18.394;2023-05-29T03:21:17;100058.58;;;10.72;89.70
24440;BME280;12618;54.386;18.394;2023-05-29T03:23:49;100063.55;;;10.75;90.79
24440;BME280;12618;54.386;18.394;2023-05-29T03:26:21;100066.67;;;10.76;91.79
24440;BME280;12618;54.386;18.394;2023-05-29T03:28:52;100054.20;;;10.75;93.30
24440;BME280;12618;54.386;18.394;2023-05-29T03:31:24;100057.34;;;10.76;93.10
24440;BME280;12618;54.386;18.394;2023-05-29T03:33:56;100058.94;;;10.80;93.34
24440;BME280;12618;54.386;18.394;2023-05-29T03:36:27;100059.80;;;10.84;94.45
24440;BME280;12618;54.386;18.394;2023-05-29T03:38:59;100067.73;;;10.88;94.14
24440;BME280;12618;54.386;18.394;2023-05-29T03:41:31;100068.96;;;10.92;93.28
24440;BME280;12618;54.386;18.394;2023-05-29T03:44:03;100068.23;;;10.97;93.58
24440;BME280;12618;54.386;18.394;2023-05-29T03:46:35;100071.79;;;11.01;93.53
24440;BME280;12618;54.386;18.394;2023-05-29T03:49:07;100073.46;;;11.06;93.68
24440;BME280;12618;54.386;18.394;2023-05-29T03:51:38;100073.59;;;11.11;91.84
24440;BME280;12618;54.386;18.394;2023-05-29T03:54:10;100076.38;;;11.16;92.36
24440;BME280;12618;54.386;18.394;2023-05-29T03:56:42;100076.16;;;11.20;92.26
24440;BME280;12618;54.386;18.394;2023-05-29T03:59:14;100078.35;;;11.26;92.26
24440;BME280;12618;54.386;18.394;2023-05-29T04:01:47;100078.55;;;11.34;91.66
24440;BME280;12618;54.386;18.394;2023-05-29T04:04:19;100080.09;;;11.42;90.51
24440;BME280;12618;54.386;18.394;2023-05-29T04:06:51;100079.23;;;11.49;91.32
24440;BME280;12618;54.386;18.394;2023-05-29T04:09:23;100078.80;;;11.59;90.13
24440;BME280;12618;54.386;18.394;2023-05-29T04:11:55;100076.82;;;11.72;90.75
24440;BME280;12618;54.386;18.394;2023-05-29T04:14:26;100077.38;;;11.83;90.78
24440;BME280;12618;54.386;18.394;2023-05-29T04:16:58;100074.62;;;11.93;88.97
24440;BME280;12618;54.386;18.394;2023-05-29T04:19:29;100078.95;;;12.01;88.36
24440;BME280;12618;54.386;18.394;2023-05-29T04:22:01;100076.52;;;12.11;88.20
24440;BME280;12618;54.386;18.394;2023-05-29T04:24:33;100077.02;;;12.19;87.63
24440;BME280;12618;54.386;18.394;2023-05-29T04:27:10;100078.98;;;12.23;88.10
24440;BME280;12618;54.386;18.394;2023-05-29T04:29:44;100081.30;;;12.29;87.67
24440;BME280;12618;54.386;18.394;2023-05-29T04:32:16;100081.73;;;12.38;87.48
24440;BME280;12618;54.386;18.394;2023-05-29T04:34:48;100082.11;;;12.52;86.92
24440;BME280;12618;54.386;18.394;2023-05-29T04:37:20;100082.89;;;12.68;85.74
24440;BME280;12618;54.386;18.394;2023-05-29T04:40:00;100081.88;;;12.84;85.40
24440;BME280;12618;54.386;18.394;2023-05-29T04:42:39;100082.72;;;12.98;83.84
24440;BME280;12618;54.386;18.394;2023-05-29T04:45:13;100089.80;;;13.08;83.40
24440;BME280;12618;54.386;18.394;2023-05-29T04:47:45;100089.20;;;13.13;82.25
24440;BME280;12618;54.386;18.394;2023-05-29T04:50:17;100088.36;;;13.20;80.68
24440;BME280;12618;54.386;18.394;2023-05-29T04:52:49;100084.59;;;13.28;80.94
24440;BME280;12618;54.386;18.394;2023-05-29T04:55:22;100083.81;;;13.36;78.79
24440;BME280;12618;54.386;18.394;2023-05-29T04:57:54;100093.47;;;13.40;77.34
24440;BME280;12618;54.386;18.394;2023-05-29T05:00:26;100088.88;;;13.46;76.50
24440;BME280;12618;54.386;18.394;2023-05-29T05:02:58;100084.48;;;13.59;76.61
24440;BME280;12618;54.386;18.394;2023-05-29T05:05:30;100083.85;;;13.70;77.07
24440;BME280;12618;54.386;18.394;2023-05-29T05:08:02;100088.34;;;13.82;77.41
24440;BME280;12618;54.386;18.394;2023-05-29T05:10:34;100090.07;;;13.96;77.24
24440;BME280;12618;54.386;18.394;2023-05-29T05:13:06;100088.65;;;14.05;76.28
24440;BME280;12618;54.386;18.394;2023-05-29T05:15:38;100087.14;;;14.10;75.15
24440;BME280;12618;54.386;18.394;2023-05-29T05:18:10;100092.42;;;14.13;74.32
24440;BME280;12618;54.386;18.394;2023-05-29T05:20:42;100091.19;;;14.16;74.07
24440;BME280;12618;54.386;18.394;2023-05-29T05:23:13;100096.31;;;14.23;73.54
24440;BME280;12618;54.386;18.394;2023-05-29T05:25:45;100099.60;;;14.24;72.82
24440;BME280;12618;54.386;18.394;2023-05-29T05:28:17;100100.04;;;14.25;72.83
24440;BME280;12618;54.386;18.394;2023-05-29T05:30:48;100096.79;;;14.30;73.65
24440;BME280;12618;54.386;18.394;2023-05-29T05:33:20;100099.06;;;14.37;73.13
24440;BME280;12618;54.386;18.394;2023-05-29T05:35:52;100094.86;;;14.48;73.96
24440;BME280;12618;54.386;18.394;2023-05-29T05:38:23;100090.98;;;14.57;72.89
24440;BME280;12618;54.386;18.394;2023-05-29T05:40:55;100092.01;;;14.70;72.39
24440;BME280;12618;54.386;18.394;2023-05-29T05:43:27;100092.03;;;14.76;70.30
24440;BME280;12618;54.386;18.394;2023-05-29T05:46:00;100091.36;;;14.75;68.87
24440;BME280;12618;54.386;18.394;2023-05-29T05:48:32;100089.77;;;14.78;67.88
24440;BME280;12618;54.386;18.394;2023-05-29T05:51:03;100087.51;;;14.71;66.68
24440;BME280;12618;54.386;18.394;2023-05-29T05:53:35;100090.69;;;14.74;67.55
24440;BME280;12618;54.386;18.394;2023-05-29T05:56:07;100092.98;;;14.78;67.05
24440;BME280;12618;54.386;18.394;2023-05-29T05:58:38;100092.08;;;14.78;66.51
24440;BME280;12618;54.386;18.394;2023-05-29T06:01:10;100095.86;;;14.80;66.77
24440;BME280;12618;54.386;18.394;2023-05-29T06:03:42;100094.80;;;14.79;65.18
24440;BME280;12618;54.386;18.394;2023-05-29T06:06:14;100094.38;;;14.80;63.89
24440;BME280;12618;54.386;18.394;2023-05-29T06:08:46;100099.65;;;14.84;61.57
24440;BME280;12618;54.386;18.394;2023-05-29T06:11:18;100104.20;;;14.85;60.35
24440;BME280;12618;54.386;18.394;2023-05-29T06:13:50;100108.05;;;14.89;58.81
24440;BME280;12618;54.386;18.394;2023-05-29T06:16:22;100103.29;;;14.95;59.87
24440;BME280;12618;54.386;18.394;2023-05-29T06:18:55;100108.92;;;15.04;59.55
24440;BME280;12618;54.386;18.394;2023-05-29T06:21:26;100102.59;;;15.15;61.69
24440;BME280;12618;54.386;18.394;2023-05-29T06:23:58;100104.94;;;15.32;60.45
24440;BME280;12618;54.386;18.394;2023-05-29T06:26:29;100109.70;;;15.41;59.71
24440;BME280;12618;54.386;18.394;2023-05-29T06:29:01;100113.31;;;15.48;60.25
24440;BME280;12618;54.386;18.394;2023-05-29T06:31:33;100113.40;;;15.64;58.05
24440;BME280;12618;54.386;18.394;2023-05-29T06:34:05;100116.55;;;15.85;57.83
24440;BME280;12618;54.386;18.394;2023-05-29T06:36:37;100115.09;;;16.16;58.65
24440;BME280;12618;54.386;18.394;2023-05-29T06:39:10;100117.77;;;16.43;57.69
24440;BME280;12618;54.386;18.394;2023-05-29T06:41:42;100124.09;;;16.60;54.90
24440;BME280;12618;54.386;18.394;2023-05-29T06:44:13;100124.11;;;16.79;53.75
24440;BME280;12618;54.386;18.394;2023-05-29T06:46:45;100131.83;;;16.96;51.22
24440;BME280;12618;54.386;18.394;2023-05-29T06:49:16;100127.26;;;17.31;50.61
24440;BME280;12618;54.386;18.394;2023-05-29T06:51:48;100122.55;;;17.81;49.86
24440;BME280;12618;54.386;18.394;2023-05-29T06:54:20;100124.77;;;18.53;49.07
24440;BME280;12618;54.386;18.394;2023-05-29T06:56:51;100124.30;;;19.20;45.27
24440;BME280;12618;54.386;18.394;2023-05-29T06:59:39;100128.13;;;19.92;43.15
24440;BME280;12618;54.386;18.394;2023-05-29T07:02:12;100126.45;;;20.73;42.42
24440;BME280;12618;54.386;18.394;2023-05-29T07:04:43;100133.91;;;21.25;39.61
24440;BME280;12618;54.386;18.394;2023-05-29T07:07:16;100132.55;;;21.65;38.39
24440;BME280;12618;54.386;18.394;2023-05-29T07:09:48;100132.20;;;22.16;37.60
24440;BME280;12618;54.386;18.394;2023-05-29T07:12:19;100129.70;;;22.43;37.06
24440;BME280;12618;54.386;18.394;2023-05-29T07:14:51;100134.14;;;22.67;35.97
24440;BME280;12618;54.386;18.394;2023-05-29T07:17:23;100132.66;;;23.08;35.45
24440;BME280;12618;54.386;18.394;2023-05-29T07:19:55;100130.56;;;23.35;35.83
24440;BME280;12618;54.386;18.394;2023-05-29T07:22:29;100130.95;;;23.76;35.55
24440;BME280;12618;54.386;18.394;2023-05-29T07:25:02;100130.84;;;24.23;34.29
24440;BME280;12618;54.386;18.394;2023-05-29T07:27:35;100131.68;;;24.38;33.83
24440;BME280;12618;54.386;18.394;2023-05-29T07:30:07;100128.02;;;24.82;34.49
24440;BME280;12618;54.386;18.394;2023-05-29T07:32:39;100127.10;;;25.13;32.42
24440;BME280;12618;54.386;18.394;2023-05-29T07:35:11;100134.45;;;24.70;31.62
24440;BME280;12618;54.386;18.394;2023-05-29T07:37:43;100134.08;;;24.86;32.37
24440;BME280;12618;54.386;18.394;2023-05-29T07:40:15;100131.16;;;25.25;31.48
24440;BME280;12618;54.386;18.394;2023-05-29T07:42:46;100134.31;;;25.07;31.31
24440;BME280;12618;54.386;18.394;2023-05-29T07:45:18;100133.33;;;25.06;31.47
24440;BME280;12618;54.386;18.394;2023-05-29T07:47:50;100134.11;;;25.23;31.62
24440;BME280;12618;54.386;18.394;2023-05-29T07:50:21;100134.71;;;25.31;30.49
24440;BME280;12618;54.386;18.394;2023-05-29T07:52:53;100135.45;;;25.43;31.10
24440;BME280;12618;54.386;18.394;2023-05-29T07:55:27;100132.10;;;25.55;30.33
24440;BME280;12618;54.386;18.394;2023-05-29T07:57:59;100140.15;;;25.55;29.75
24440;BME280;12618;54.386;18.394;2023-05-29T08:00:31;100135.48;;;25.42;29.58
24440;BME280;12618;54.386;18.394;2023-05-29T08:03:03;100134.00;;;25.56;29.83
24440;BME280;12618;54.386;18.394;2023-05-29T08:05:35;100139.33;;;25.67;29.31
24440;BME280;12618;54.386;18.394;2023-05-29T08:08:06;100138.85;;;25.52;28.84
24440;BME280;12618;54.386;18.394;2023-05-29T08:10:39;100143.00;;;25.83;28.77
24440;BME280;12618;54.386;18.394;2023-05-29T08:13:10;100141.04;;;25.90;28.77
24440;BME280;12618;54.386;18.394;2023-05-29T08:15:42;100150.74;;;25.90;28.16
24440;BME280;12618;54.386;18.394;2023-05-29T08:18:14;100148.83;;;26.00;28.25
24440;BME280;12618;54.386;18.394;2023-05-29T08:20:46;100151.43;;;25.87;27.42
24440;BME280;12618;54.386;18.394;2023-05-29T08:23:18;100151.34;;;25.45;27.98
24440;BME280;12618;54.386;18.394;2023-05-29T08:25:50;100152.57;;;25.91;28.09
24440;BME280;12618;54.386;18.394;2023-05-29T08:28:22;100151.22;;;26.15;27.45
24440;BME280;12618;54.386;18.394;2023-05-29T08:30:54;100150.84;;;26.20;28.00
24440;BME280;12618;54.386;18.394;2023-05-29T08:33:26;100154.41;;;26.54;28.12
24440;BME280;12618;54.386;18.394;2023-05-29T08:35:58;100156.43;;;26.50;27.26
24440;BME280;12618;54.386;18.394;2023-05-29T08:38:30;100154.71;;;26.43;27.58
24440;BME280;12618;54.386;18.394;2023-05-29T08:41:02;100158.36;;;26.65;26.80
24440;BME280;12618;54.386;18.394;2023-05-29T08:43:34;100159.84;;;26.56;26.61
24440;BME280;12618;54.386;18.394;2023-05-29T08:46:06;100151.01;;;26.45;26.62
24440;BME280;12618;54.386;18.394;2023-05-29T08:48:40;100167.90;;;26.26;26.55
24440;BME280;12618;54.386;18.394;2023-05-29T08:51:14;100160.41;;;26.25;26.79
24440;BME280;12618;54.386;18.394;2023-05-29T08:53:47;100165.29;;;26.23;26.66
24440;BME280;12618;54.386;18.394;2023-05-29T08:56:19;100161.52;;;26.31;26.61
24440;BME280;12618;54.386;18.394;2023-05-29T08:59:05;100160.40;;;26.28;26.27
24440;BME280;12618;54.386;18.394;2023-05-29T09:01:39;100167.29;;;25.92;26.55
24440;BME280;12618;54.386;18.394;2023-05-29T09:04:11;100162.94;;;25.96;26.40
24440;BME280;12618;54.386;18.394;2023-05-29T09:06:44;100158.27;;;25.84;25.78
24440;BME280;12618;54.386;18.394;2023-05-29T09:09:16;100162.02;;;26.01;26.13
24440;BME280;12618;54.386;18.394;2023-05-29T09:11:48;100158.02;;;26.22;25.29
24440;BME280;12618;54.386;18.394;2023-05-29T09:14:35;100156.65;;;26.40;24.68
24440;BME280;12618;54.386;18.394;2023-05-29T09:17:09;100151.80;;;26.93;25.33
24440;BME280;12618;54.386;18.394;2023-05-29T09:19:41;100153.81;;;27.03;24.42
24440;BME280;12618;54.386;18.394;2023-05-29T09:22:14;100152.45;;;27.16;25.04
24440;BME280;12618;54.386;18.394;2023-05-29T09:24:48;100158.39;;;27.30;24.72
24440;BME280;12618;54.386;18.394;2023-05-29T09:27:22;100159.49;;;27.57;24.34
24440;BME280;12618;54.386;18.394;2023-05-29T09:29:53;100161.63;;;27.57;23.88
24440;BME280;12618;54.386;18.394;2023-05-29T09:32:32;100157.17;;;27.44;24.26
24440;BME280;12618;54.386;18.394;2023-05-29T09:35:06;100155.58;;;27.42;24.25
24440;BME280;12618;54.386;18.394;2023-05-29T09:37:41;100163.71;;;27.34;22.64
24440;BME280;12618;54.386;18.394;2023-05-29T09:40:12;100169.29;;;26.76;22.82
24440;BME280;12618;54.386;18.394;2023-05-29T09:42:45;100166.73;;;26.57;22.53
24440;BME280;12618;54.386;18.394;2023-05-29T09:45:21;100166.54;;;26.57;23.66
24440;BME280;12618;54.386;18.394;2023-05-29T09:47:53;100167.52;;;26.33;24.04
24440;BME280;12618;54.386;18.394;2023-05-29T09:50:27;100164.14;;;26.31;24.11
24440;BME280;12618;54.386;18.394;2023-05-29T09:53:00;100163.95;;;26.41;24.80
24440;BME280;12618;54.386;18.394;2023-05-29T09:55:33;100161.93;;;26.46;24.02
24440;BME280;12618;54.386;18.394;2023-05-29T09:58:08;100170.17;;;26.66;22.99
24440;BME280;12618;54.386;18.394;2023-05-29T10:00:41;100165.59;;;26.59;22.75
24440;BME280;12618;54.386;18.394;2023-05-29T10:03:13;100161.66;;;26.37;22.91
24440;BME280;12618;54.386;18.394;2023-05-29T10:05:48;100167.90;;;26.39;23.39
24440;BME280;12618;54.386;18.394;2023-05-29T10:08:21;100163.93;;;26.36;23.78
24440;BME280;12618;54.386;18.394;2023-05-29T10:10:59;100164.87;;;26.46;24.19
24440;BME280;12618;54.386;18.394;2023-05-29T10:13:36;100165.14;;;26.55;23.73
24440;BME280;12618;54.386;18.394;2023-05-29T10:16:11;100167.59;;;26.72;23.78
24440;BME280;12618;54.386;18.394;2023-05-29T10:18:56;100168.23;;;26.76;23.77
24440;BME280;12618;54.386;18.394;2023-05-29T10:21:28;100167.80;;;26.75;23.66
24440;BME280;12618;54.386;18.394;2023-05-29T10:24:02;100164.48;;;26.72;22.90
24440;BME280;12618;54.386;18.394;2023-05-29T10:26:39;100164.08;;;26.74;23.21
24440;BME280;12618;54.386;18.394;2023-05-29T10:29:42;100161.02;;;26.69;22.99
24440;BME280;12618;54.386;18.394;2023-05-29T10:38:15;100156.23;;;26.20;23.17
24440;BME280;12618;54.386;18.394;2023-05-29T10:40:50;100160.02;;;26.10;23.75
24440;BME280;12618;54.386;18.394;2023-05-29T10:43:32;100155.39;;;25.94;23.54
24440;BME280;12618;54.386;18.394;2023-05-29T10:46:04;100149.77;;;25.75;24.08
24440;BME280;12618;54.386;18.394;2023-05-29T10:48:37;100146.71;;;25.53;23.96
24440;BME280;12618;54.386;18.394;2023-05-29T10:51:24;100148.13;;;25.58;23.77
24440;BME280;12618;54.386;18.394;2023-05-29T10:53:56;100151.76;;;25.53;23.84
24440;BME280;12618;54.386;18.394;2023-05-29T10:56:29;100148.20;;;25.71;23.97
24440;BME280;12618;54.386;18.394;2023-05-29T10:59:01;100145.08;;;25.67;23.10
24440;BME280;12618;54.386;18.394;2023-05-29T11:01:34;100141.61;;;25.57;22.81
24440;BME280;12618;54.386;18.394;2023-05-29T11:06:47;100138.42;;;25.53;23.23
24440;BME280;12618;54.386;18.394;2023-05-29T11:09:38;100133.48;;;25.52;23.68
24440;BME280;12618;54.386;18.394;2023-05-29T11:12:24;100134.90;;;25.57;23.53
24440;BME280;12618;54.386;18.394;2023-05-29T11:15:06;100136.18;;;25.64;23.88
24440;BME280;12618;54.386;18.394;2023-05-29T11:20:50;100132.05;;;25.50;24.49
24440;BME280;12618;54.386;18.394;2023-05-29T11:23:24;100126.42;;;25.57;24.21
24440;BME280;12618;54.386;18.394;2023-05-29T11:26:01;100128.45;;;25.45;23.69
24440;BME280;12618;54.386;18.394;2023-05-29T11:28:35;100131.45;;;25.28;23.99
24440;BME280;12618;54.386;18.394;2023-05-29T11:31:08;100128.14;;;25.23;23.75
24440;BME280;12618;54.386;18.394;2023-05-29T11:33:40;100123.75;;;24.73;24.66
24440;BME280;12618;54.386;18.394;2023-05-29T11:36:15;100126.46;;;24.76;24.40
24440;BME280;12618;54.386;18.394;2023-05-29T11:38:47;100125.23;;;24.85;24.22
24440;BME280;12618;54.386;18.394;2023-05-29T11:41:19;100127.11;;;24.82;25.04
24440;BME280;12618;54.386;18.394;2023-05-29T11:43:57;100124.31;;;25.01;24.90
24440;BME280;12618;54.386;18.394;2023-05-29T11:46:29;100124.64;;;25.08;24.80
24440;BME280;12618;54.386;18.394;2023-05-29T11:49:05;100128.50;;;24.99;24.94
24440;BME280;12618;54.386;18.394;2023-05-29T11:51:37;100136.10;;;24.90;23.42
24440;BME280;12618;54.386;18.394;2023-05-29T11:54:11;100136.05;;;24.72;23.95
24440;BME280;12618;54.386;18.394;2023-05-29T11:56:43;100134.52;;;24.67;24.05
24440;BME280;12618;54.386;18.394;2023-05-29T11:59:15;100136.66;;;24.58;24.30
24440;BME280;12618;54.386;18.394;2023-05-29T12:01:48;100127.91;;;23.87;24.02
24440;BME280;12618;54.386;18.394;2023-05-29T12:04:19;100124.57;;;23.30;24.95
24440;BME280;12618;54.386;18.394;2023-05-29T12:06:51;100127.48;;;23.30;24.97
24440;BME280;12618;54.386;18.394;2023-05-29T12:09:28;100125.29;;;23.34;24.53
24440;BME280;12618;54.386;18.394;2023-05-29T12:12:04;100124.91;;;23.36;25.31
24440;BME280;12618;54.386;18.394;2023-05-29T12:14:36;100122.66;;;23.50;24.16
24440;BME280;12618;54.386;18.394;2023-05-29T12:17:07;100119.85;;;23.72;25.27
24440;BME280;12618;54.386;18.394;2023-05-29T12:19:40;100116.02;;;23.89;24.91
24440;BME280;12618;54.386;18.394;2023-05-29T12:22:12;100116.67;;;24.04;25.38
24440;BME280;12618;54.386;18.394;2023-05-29T12:24:44;100117.60;;;24.12;25.14
24440;BME280;12618;54.386;18.394;2023-05-29T12:27:15;100111.11;;;24.06;25.44
24440;BME280;12618;54.386;18.394;2023-05-29T12:29:47;100116.70;;;23.99;24.65
24440;BME280;12618;54.386;18.394;2023-05-29T12:32:19;100120.31;;;23.78;25.04
24440;BME280;12618;54.386;18.394;2023-05-29T12:34:51;100117.40;;;23.82;25.59
24440;BME280;12618;54.386;18.394;2023-05-29T12:37:24;100114.14;;;23.88;26.09
24440;BME280;12618;54.386;18.394;2023-05-29T12:40:31;100111.41;;;23.88;26.36
24440;BME280;12618;54.386;18.394;2023-05-29T12:43:03;100110.46;;;23.83;27.49
24440;BME280;12618;54.386;18.394;2023-05-29T12:45:36;100113.09;;;23.75;27.67
24440;BME280;12618;54.386;18.394;2023-05-29T12:48:08;100110.13;;;23.42;28.07
24440;BME280;12618;54.386;18.394;2023-05-29T12:50:41;100108.21;;;23.38;28.39
24440;BME280;12618;54.386;18.394;2023-05-29T12:53:15;100115.01;;;23.32;28.83
24440;BME280;12618;54.386;18.394;2023-05-29T12:55:47;100116.52;;;23.05;29.80
24440;BME280;12618;54.386;18.394;2023-05-29T12:58:19;100109.70;;;23.01;29.66
24440;BME280;12618;54.386;18.394;2023-05-29T13:00:53;100120.44;;;22.88;30.03
24440;BME280;12618;54.386;18.394;2023-05-29T13:03:27;100113.44;;;22.70;30.06
24440;BME280;12618;54.386;18.394;2023-05-29T13:05:59;100109.08;;;22.79;30.56
24440;BME280;12618;54.386;18.394;2023-05-29T13:08:31;100107.16;;;22.84;30.17
24440;BME280;12618;54.386;18.394;2023-05-29T13:11:03;100106.95;;;22.77;30.48
24440;BME280;12618;54.386;18.394;2023-05-29T13:13:34;100110.13;;;22.69;30.41
24440;BME280;12618;54.386;18.394;2023-05-29T13:16:06;100108.75;;;22.41;30.12
24440;BME280;12618;54.386;18.394;2023-05-29T13:18:38;100105.36;;;21.95;30.83
24440;BME280;12618;54.386;18.394;2023-05-29T13:21:10;100103.90;;;21.88;31.33
24440;BME280;12618;54.386;18.394;2023-05-29T13:23:42;100095.58;;;21.70;30.90
24440;BME280;12618;54.386;18.394;2023-05-29T13:26:14;100100.95;;;21.66;31.58
24440;BME280;12618;54.386;18.394;2023-05-29T13:28:45;100099.77;;;21.92;31.46
24440;BME280;12618;54.386;18.394;2023-05-29T13:31:17;100104.61;;;21.98;31.26